Time;durP1;ratioP1;P1;durP2;ratioP2;P2;SDS_P1;SDS_P2;PMS_P1;PMS_P2;Temp;Humidity;BMP_temperature;BMP_pressure;BME280_temperature;BME280_humidity;BME280_pressure;Samples;Min_cycle;Max_cycle;Signal;HPM_P1;HPM_P2
2022/05/31 00:02:03;;;;;;;8.82;6.80;;;;;;;10.49;71.24;101341.53;5046804;28;20099;-56
2022/05/31 00:04:30;;;;;;;9.23;6.35;;;;;;;10.48;71.27;101339.06;5046914;28;20041;-57
2022/05/31 00:06:56;;;;;;;13.50;6.63;;;;;;;10.43;71.12;101336.88;5047370;28;20597;-57
2022/05/31 00:09:21;;;;;;;10.65;6.72;;;;;;;10.42;70.97;101337.03;5045760;28;20029;-57
2022/05/31 00:11:47;;;;;;;8.95;6.68;;;;;;;10.35;71.31;101326.19;5047470;28;20029;-56
2022/05/31 00:14:14;;;;;;;10.68;6.50;;;;;;;10.40;71.13;101337.16;5046172;28;20021;-56
2022/05/31 00:16:39;;;;;;;10.00;6.65;;;;;;;10.33;71.20;101336.13;5040859;28;20036;-57
2022/05/31 00:19:04;;;;;;;14.18;6.65;;;;;;;10.31;71.25;101324.84;5048308;28;20048;-56
2022/05/31 00:21:51;;;;;;;9.77;6.68;;;;;;;10.35;71.83;101328.84;5041968;28;20112;-57
2022/05/31 00:24:18;;;;;;;11.27;7.00;;;;;;;10.30;71.42;101332.97;5042662;28;20405;-56
2022/05/31 00:26:44;;;;;;;7.35;6.30;;;;;;;10.26;71.48;101328.97;5044751;28;20036;-56
2022/05/31 00:29:11;;;;;;;10.70;6.38;;;;;;;10.27;71.84;101330.63;5045339;28;20022;-56
2022/05/31 00:31:40;;;;;;;10.98;7.00;;;;;;;10.26;72.32;101328.97;5047874;28;20119;-54
2022/05/31 00:34:07;;;;;;;13.07;7.00;;;;;;;10.30;72.12;101323.16;5045302;28;20029;-55
2022/05/31 00:36:33;;;;;;;9.90;6.43;;;;;;;10.32;72.13;101320.34;5038205;28;20152;-57
2022/05/31 00:38:58;;;;;;;11.32;6.57;;;;;;;10.31;72.19;101322.19;5046158;28;20021;-56
2022/05/31 00:41:24;;;;;;;10.50;6.70;;;;;;;10.32;72.18;101323.00;5048003;28;20031;-56
2022/05/31 00:43:59;;;;;;;10.20;7.05;;;;;;;10.33;72.36;101327.34;5043973;28;20029;-55
2022/05/31 00:46:30;;;;;;;13.13;7.28;;;;;;;10.31;72.13;101324.00;5047091;28;20044;-56
2022/05/31 00:49:00;;;;;;;10.05;7.05;;;;;;;10.34;72.45;101329.81;5047465;28;20035;-56
2022/05/31 00:51:36;;;;;;;11.95;7.15;;;;;;;10.33;72.39;101337.94;5048713;28;20029;-57
2022/05/31 00:54:05;;;;;;;11.07;7.43;;;;;;;10.32;72.66;101333.63;5045195;28;20020;-57
2022/05/31 00:56:31;;;;;;;17.05;7.30;;;;;;;10.35;72.62;101328.00;5045734;28;20028;-53
2022/05/31 00:59:04;;;;;;;11.35;7.03;;;;;;;10.26;72.77;101329.78;5048061;28;20103;-57
2022/05/31 01:01:33;;;;;;;9.60;6.88;;;;;;;10.24;72.82;101326.47;5049955;28;20025;-55
2022/05/31 01:03:59;;;;;;;8.55;6.93;;;;;;;10.22;73.17;101323.97;5047545;28;20025;-56
2022/05/31 01:06:24;;;;;;;11.93;6.97;;;;;;;10.17;73.07;101326.22;5045222;28;20036;-56
2022/05/31 01:08:54;;;;;;;14.02;6.90;;;;;;;10.13;72.58;101319.56;5046736;28;20040;-57
2022/05/31 01:11:22;;;;;;;12.38;7.47;;;;;;;10.12;72.71;101328.53;5045739;28;20032;-56
2022/05/31 01:13:48;;;;;;;11.50;7.30;;;;;;;10.11;73.15;101326.00;5043577;28;20029;-56
2022/05/31 01:16:14;;;;;;;11.68;7.40;;;;;;;10.09;73.21;101320.84;5045931;28;20097;-56
2022/05/31 01:18:40;;;;;;;9.38;7.30;;;;;;;10.02;73.09;101321.63;5046897;28;20040;-56
2022/05/31 01:21:06;;;;;;;13.40;7.28;;;;;;;9.98;73.52;101320.28;5051522;28;20021;-54
2022/05/31 01:23:43;;;;;;;11.20;6.50;;;;;;;10.03;73.50;101313.50;5046019;28;20024;-57
2022/05/31 01:26:21;;;;;;;8.90;6.70;;;;;;;10.04;73.59;101315.19;5044071;28;20027;-57
2022/05/31 01:28:58;;;;;;;12.02;7.05;;;;;;;10.05;73.97;101314.19;5045294;28;20029;-56
2022/05/31 01:31:54;;;;;;;9.65;6.70;;;;;;;10.03;73.93;101310.84;5042198;28;20091;-56
2022/05/31 01:34:27;;;;;;;8.95;7.78;;;;;;;9.98;73.93;101307.84;5043357;28;20667;-55
2022/05/31 01:36:54;;;;;;;8.00;7.15;;;;;;;9.92;73.83;101311.13;5043947;28;20033;-57
2022/05/31 01:39:28;;;;;;;7.65;6.80;;;;;;;9.91;74.51;101315.59;5045705;28;20330;-56
2022/05/31 01:41:58;;;;;;;11.70;7.38;;;;;;;9.90;74.34;101305.97;5047333;28;20045;-57
2022/05/31 01:44:29;;;;;;;9.25;6.75;;;;;;;9.87;74.50;101308.94;5046471;28;20021;-56
2022/05/31 01:46:56;;;;;;;13.93;7.65;;;;;;;9.87;74.70;101302.78;5044730;28;20495;-55
2022/05/31 01:49:22;;;;;;;8.73;6.97;;;;;;;9.87;74.27;101311.59;5045459;28;20047;-56
2022/05/31 01:51:49;;;;;;;8.85;7.35;;;;;;;9.85;74.27;101302.13;5028988;28;20032;-54
2022/05/31 01:54:17;;;;;;;12.15;6.97;;;;;;;9.73;74.32;101308.63;5047928;28;20036;-56
2022/05/31 01:56:47;;;;;;;16.00;7.53;;;;;;;9.74;74.47;101303.19;5043623;28;20280;-56
2022/05/31 01:59:13;;;;;;;8.35;6.75;;;;;;;9.76;74.30;101308.31;5047369;28;20397;-55
2022/05/31 02:01:39;;;;;;;12.80;6.70;;;;;;;9.69;74.46;101307.28;5046867;28;20044;-56
2022/05/31 02:04:06;;;;;;;9.57;7.05;;;;;;;9.60;74.44;101301.91;5046519;28;20476;-56
2022/05/31 02:06:37;;;;;;;8.63;6.80;;;;;;;9.56;74.67;101305.88;5045481;28;20021;-57
2022/05/31 02:09:05;;;;;;;10.57;7.00;;;;;;;9.57;74.37;101301.41;5046050;28;20095;-57
2022/05/31 02:11:31;;;;;;;9.07;6.80;;;;;;;9.61;74.43;101303.59;5044620;28;20032;-56
2022/05/31 02:13:58;;;;;;;10.10;7.03;;;;;;;9.60;74.37;101303.75;5043446;28;20408;-56
2022/05/31 02:16:24;;;;;;;10.07;6.60;;;;;;;9.54;74.61;101291.06;5048047;28;20025;-57
2022/05/31 02:21:36;;;;;;;9.75;7.10;;;;;;;9.59;74.67;101302.06;5045526;28;20055;-56
2022/05/31 02:24:07;;;;;;;9.77;6.70;;;;;;;9.58;75.05;101298.59;5044943;28;20384;-57
2022/05/31 02:26:33;;;;;;;12.98;7.25;;;;;;;9.63;74.79;101298.97;5047794;28;20500;-57
2022/05/31 02:28:59;;;;;;;9.52;6.82;;;;;;;9.62;75.13;101299.13;5043460;28;20477;-56
2022/05/31 02:31:25;;;;;;;10.75;6.82;;;;;;;9.62;74.91;101299.94;5043655;28;20025;-57
2022/05/31 02:33:50;;;;;;;9.77;7.10;;;;;;;9.63;75.00;101298.13;5042032;28;20082;-58
2022/05/31 02:36:16;;;;;;;9.80;6.78;;;;;;;9.56;75.56;101284.66;5041424;28;20543;-57
2022/05/31 02:38:41;;;;;;;12.75;7.13;;;;;;;9.61;75.59;101287.69;5043429;28;20029;-56
2022/05/31 02:41:06;;;;;;;9.90;7.07;;;;;;;9.59;75.75;101283.50;5044812;28;20029;-57
2022/05/31 02:43:32;;;;;;;9.43;7.10;;;;;;;9.60;76.02;101288.66;5044179;28;20472;-56
2022/05/31 02:46:00;;;;;;;11.05;7.53;;;;;;;9.58;76.06;101287.16;5043197;28;20025;-57
2022/05/31 02:48:26;;;;;;;12.23;7.13;;;;;;;9.64;76.14;101286.53;5042235;28;20047;-57
2022/05/31 02:50:51;;;;;;;11.38;6.75;;;;;;;9.60;76.19;101280.72;5043176;28;20479;-57
2022/05/31 02:53:17;;;;;;;12.75;7.18;;;;;;;9.59;76.50;101286.16;5051958;28;20029;-57
2022/05/31 02:55:42;;;;;;;11.23;6.90;;;;;;;9.60;76.66;101290.47;5047702;28;20492;-57
2022/05/31 02:58:07;;;;;;;8.88;7.50;;;;;;;9.59;76.33;101288.81;5044828;28;20116;-57
2022/05/31 03:00:33;;;;;;;12.20;7.18;;;;;;;9.61;76.46;101292.16;5046938;28;20528;-57
2022/05/31 03:02:58;;;;;;;10.30;7.78;;;;;;;9.59;76.41;101289.66;5046139;28;20079;-57
2022/05/31 03:05:24;;;;;;;9.30;6.72;;;;;;;9.60;76.03;101290.47;5043279;28;20055;-57
2022/05/31 03:07:49;;;;;;;9.60;6.60;;;;;;;9.57;76.21;101286.31;5046337;28;20042;-57
2022/05/31 03:10:14;;;;;;;9.65;7.03;;;;;;;9.55;76.22;101279.50;5041162;28;20334;-57
2022/05/31 03:12:40;;;;;;;7.53;6.70;;;;;;;9.57;76.20;101280.19;5047305;28;20025;-56
2022/05/31 03:15:12;;;;;;;12.40;6.85;;;;;;;9.50;75.72;101287.91;5045052;28;20404;-58
2022/05/31 03:17:44;;;;;;;10.88;6.82;;;;;;;9.50;75.82;101289.72;5045265;28;20393;-57
2022/05/31 03:20:17;;;;;;;9.10;7.05;;;;;;;9.48;76.16;101271.31;5046012;28;20119;-55
2022/05/31 03:22:56;;;;;;;10.15;7.00;;;;;;;9.42;76.17;101274.56;5048157;28;20032;-57
2022/05/31 03:25:24;;;;;;;;;;;;;;;9.57;75.88;101278.38;5045561;28;20029;-57
2022/05/31 03:27:52;;;;;;;12.20;7.32;;;;;;;9.46;75.95;101277.75;5040749;28;20299;-57
2022/05/31 03:30:17;;;;;;;10.60;7.28;;;;;;;9.45;75.88;101279.56;5039964;28;20489;-57
2022/05/31 03:32:44;;;;;;;12.65;7.47;;;;;;;9.47;75.86;101282.06;5045515;28;20071;-56
2022/05/31 03:35:09;;;;;;;13.52;7.72;;;;;;;9.41;75.95;101285.34;5044392;28;20021;-57
2022/05/31 03:37:35;;;;;;;10.95;7.55;;;;;;;9.34;76.00;101274.50;5043538;28;20037;-57
2022/05/31 03:40:00;;;;;;;14.77;8.07;;;;;;;9.32;76.43;101284.44;5043919;28;20044;-57
2022/05/31 03:42:26;;;;;;;9.38;7.43;;;;;;;9.34;76.46;101271.84;5045896;28;20099;-55
2022/05/31 03:44:51;;;;;;;10.02;7.35;;;;;;;9.38;76.63;101277.69;5045071;28;20098;-57
2022/05/31 03:47:17;;;;;;;21.77;8.02;;;;;;;9.38;76.79;101272.38;5051034;28;20021;-56
2022/05/31 03:49:42;;;;;;;11.27;7.68;;;;;;;9.36;76.61;101272.53;5046450;28;20152;-56
2022/05/31 03:52:07;;;;;;;13.38;7.57;;;;;;;9.38;76.68;101277.69;5048476;28;20108;-56
2022/05/31 03:54:36;;;;;;;21.10;8.55;;;;;;;9.42;76.64;101279.03;5050141;28;20044;-56
2022/05/31 03:57:02;;;;;;;16.05;8.40;;;;;;;9.45;76.71;101276.91;5043202;28;20027;-57
2022/05/31 03:59:29;;;;;;;20.52;7.97;;;;;;;9.44;76.79;101275.25;5048995;28;20577;-56
2022/05/31 04:01:54;;;;;;;11.85;7.22;;;;;;;9.49;76.92;101275.63;5046955;28;20033;-56
2022/05/31 04:04:19;;;;;;;12.45;7.45;;;;;;;9.49;76.81;101270.31;5050159;28;20078;-57
2022/05/31 04:06:46;;;;;;;11.05;7.80;;;;;;;9.50;76.92;101263.19;5048959;28;20033;-56
2022/05/31 04:09:11;;;;;;;18.45;8.30;;;;;;;9.53;76.72;101269.03;5046570;28;20086;-56
2022/05/31 04:11:36;;;;;;;15.32;7.80;;;;;;;9.55;77.06;101271.56;5049265;28;20435;-54
2022/05/31 04:14:02;;;;;;;12.93;7.75;;;;;;;9.53;77.07;101274.31;5048321;28;20020;-55
2022/05/31 04:16:28;;;;;;;18.60;7.75;;;;;;;9.54;77.29;101264.56;5050011;28;20036;-56
2022/05/31 04:18:53;;;;;;;14.85;7.95;;;;;;;9.58;76.93;101266.78;5042532;28;20025;-56
2022/05/31 04:21:18;;;;;;;16.52;8.73;;;;;;;9.61;76.88;101266.47;5049977;28;20029;-57
2022/05/31 04:23:58;;;;;;;9.63;7.90;;;;;;;9.63;77.06;101264.47;5044886;28;20029;-56
2022/05/31 04:26:29;;;;;;;13.30;8.07;;;;;;;9.67;77.00;101269.47;5046942;28;20048;-56
2022/05/31 04:28:54;;;;;;;16.80;8.30;;;;;;;9.68;76.47;101265.84;5047354;28;20099;-56
2022/05/31 04:31:19;;;;;;;17.17;8.75;;;;;;;9.66;76.25;101262.50;5048811;28;20108;-55
2022/05/31 04:33:44;;;;;;;14.57;8.82;;;;;;;9.70;76.42;101262.03;5047429;28;20488;-56
2022/05/31 04:36:13;;;;;;;17.30;8.65;;;;;;;9.73;75.95;101267.03;5047456;28;20036;-57
2022/05/31 04:38:39;;;;;;;18.70;8.75;;;;;;;9.77;76.20;101270.22;5047302;28;20393;-57
2022/05/31 04:41:05;;;;;;;16.58;8.68;;;;;;;9.82;76.04;101270.56;5045429;28;20484;-56
2022/05/31 04:43:32;;;;;;;17.00;8.75;;;;;;;9.85;76.09;101268.47;5045616;28;20067;-56
2022/05/31 04:45:57;;;;;;;13.38;8.63;;;;;;;9.93;76.07;101273.00;5047980;28;20052;-56
2022/05/31 04:48:23;;;;;;;12.75;8.57;;;;;;;9.94;76.49;101264.03;5045564;28;20507;-55
2022/05/31 04:50:48;;;;;;;11.35;8.27;;;;;;;9.99;76.90;101277.66;5048924;28;20024;-56
2022/05/31 04:53:13;;;;;;;16.23;8.95;;;;;;;10.02;76.69;101264.09;5048243;28;20044;-56
2022/05/31 04:55:39;;;;;;;16.17;9.45;;;;;;;10.07;77.04;101268.91;5044363;28;20036;-57
2022/05/31 04:58:04;;;;;;;14.60;9.00;;;;;;;10.11;76.92;101262.31;5045811;28;20025;-56
2022/05/31 05:00:30;;;;;;;14.02;9.77;;;;;;;10.14;77.38;101262.84;5046375;28;20021;-57
2022/05/31 05:02:55;;;;;;;14.52;9.23;;;;;;;10.20;77.27;101261.38;5041337;28;20029;-56
2022/05/31 05:05:21;;;;;;;22.20;10.80;;;;;;;10.22;77.64;101262.91;5047453;28;20024;-55
2022/05/31 05:07:47;;;;;;;13.35;9.93;;;;;;;10.26;77.52;101273.22;5048610;28;20120;-54
2022/05/31 05:10:12;;;;;;;16.27;10.25;;;;;;;10.30;77.22;101266.59;5047069;28;20028;-56
2022/05/31 05:12:38;;;;;;;15.55;10.15;;;;;;;10.31;77.40;101263.78;5045883;28;20033;-56
2022/05/31 05:15:05;;;;;;;16.70;10.55;;;;;;;10.33;77.49;101267.09;5046728;28;20024;-56
2022/05/31 05:17:31;;;;;;;16.23;11.02;;;;;;;10.36;77.58;101264.13;5047803;28;20509;-56
2022/05/31 05:19:56;;;;;;;16.55;10.93;;;;;;;10.38;77.84;101263.97;5048029;28;20037;-56
2022/05/31 05:22:22;;;;;;;14.50;10.23;;;;;;;10.42;77.77;101266.19;5046408;28;21284;-57
2022/05/31 05:24:47;;;;;;;18.90;11.25;;;;;;;10.45;77.51;101270.34;5047848;28;20424;-57
2022/05/31 05:27:12;;;;;;;23.67;11.45;;;;;;;10.48;77.20;101264.69;5044332;28;20079;-56
2022/05/31 05:32:21;;;;;;;14.38;10.60;;;;;;;10.57;77.56;101262.91;5037108;28;20511;-57
2022/05/31 05:34:54;;;;;;;15.60;11.27;;;;;;;10.58;77.21;101265.41;5039382;28;20021;-55
2022/05/31 05:37:20;;;;;;;16.92;11.60;;;;;;;10.62;77.56;101263.25;5042964;28;20496;-56
2022/05/31 05:39:45;;;;;;;18.05;12.20;;;;;;;10.64;77.14;101263.91;5051102;28;20090;-55
2022/05/31 05:42:12;;;;;;;19.38;11.55;;;;;;;10.62;77.03;101253.47;5040183;28;20036;-56
2022/05/31 05:44:37;;;;;;;18.42;12.48;;;;;;;10.66;77.22;101257.44;5044609;28;20029;-56
2022/05/31 05:47:10;;;;;;;17.20;12.07;;;;;;;10.70;77.49;101258.81;5040836;28;20035;-57
2022/05/31 05:49:36;;;;;;;18.45;12.30;;;;;;;10.71;77.23;101271.09;5048787;28;20025;-56
2022/05/31 05:52:03;;;;;;;20.52;12.35;;;;;;;10.71;77.50;101263.13;5047249;28;20028;-56
2022/05/31 05:54:28;;;;;;;21.48;13.43;;;;;;;10.72;77.67;101262.16;5043980;28;20013;-56
2022/05/31 05:56:53;;;;;;;20.38;13.73;;;;;;;10.80;77.97;101259.50;5042758;28;20620;-56
2022/05/31 05:59:20;;;;;;;23.25;13.27;;;;;;;10.84;77.60;101252.03;5046859;28;20063;-56
2022/05/31 06:01:50;;;;;;;16.58;13.18;;;;;;;10.85;78.00;101262.50;5046954;28;20083;-57
2022/05/31 06:04:19;;;;;;;19.58;13.23;;;;;;;10.89;77.52;101262.19;5047462;28;20132;-56
2022/05/31 06:06:46;;;;;;;16.80;13.10;;;;;;;10.90;76.96;101264.66;5044601;28;20029;-57
2022/05/31 06:09:22;;;;;;;19.90;13.93;;;;;;;10.94;76.94;101266.00;5045210;28;20017;-57
2022/05/31 06:11:54;;;;;;;19.27;14.43;;;;;;;10.94;77.15;101249.22;5046308;28;20396;-56
2022/05/31 06:14:27;;;;;;;19.35;14.50;;;;;;;11.00;77.01;101256.56;5047502;28;20357;-55
2022/05/31 06:16:57;;;;;;;21.05;13.93;;;;;;;11.04;77.03;101265.88;5046788;28;20087;-56
2022/05/31 06:19:31;;;;;;;20.63;14.18;;;;;;;11.06;76.78;101258.56;5047616;28;20527;-56
2022/05/31 06:21:58;;;;;;;19.15;15.02;;;;;;;11.09;77.08;101251.09;5045570;28;20021;-57
2022/05/31 06:24:27;;;;;;;24.63;15.05;;;;;;;11.16;77.01;101248.59;5043741;28;20030;-56
2022/05/31 06:26:52;;;;;;;27.98;15.35;;;;;;;11.22;77.28;101253.25;5045428;28;20033;-57
2022/05/31 06:29:17;;;;;;;21.17;15.15;;;;;;;11.28;77.32;101252.63;5047139;28;20407;-56
2022/05/31 06:31:42;;;;;;;23.38;14.95;;;;;;;11.31;77.34;101251.47;5049979;28;20270;-56
2022/05/31 06:34:08;;;;;;;18.42;14.55;;;;;;;11.33;77.33;101258.28;5044510;28;20248;-57
2022/05/31 06:36:33;;;;;;;19.60;14.38;;;;;;;11.38;76.81;101252.47;5044813;28;20100;-56
2022/05/31 06:38:58;;;;;;;19.05;14.32;;;;;;;11.46;76.55;101255.13;5046141;28;20020;-56
2022/05/31 06:41:23;;;;;;;18.98;14.18;;;;;;;11.53;77.00;101257.94;5044733;28;20028;-56
2022/05/31 06:43:49;;;;;;;21.70;14.48;;;;;;;11.60;76.47;101258.94;5043294;28;20040;-56
2022/05/31 06:46:15;;;;;;;19.50;14.73;;;;;;;11.66;76.45;101255.63;5040037;28;20431;-56
2022/05/31 06:48:40;;;;;;;18.48;14.32;;;;;;;11.72;76.05;101258.44;5043626;28;20443;-55
2022/05/31 06:51:07;;;;;;;20.58;14.85;;;;;;;11.77;76.47;101253.44;5046957;28;20036;-55
2022/05/31 06:58:52;;;;;;;20.73;14.55;;;;;;;11.97;75.02;101264.59;5045405;28;20036;-56
2022/05/31 07:01:17;;;;;;;17.08;13.88;;;;;;;12.05;74.59;101256.56;5051457;28;20071;-55
2022/05/31 07:03:42;;;;;;;21.40;14.25;;;;;;;12.14;74.25;101264.53;5048715;28;20041;-56
2022/05/31 07:06:08;;;;;;;22.58;14.40;;;;;;;12.23;73.59;101255.53;5045122;28;20083;-56
2022/05/31 07:08:33;;;;;;;21.52;14.52;;;;;;;12.35;72.91;101262.16;5047527;28;20498;-55
2022/05/31 07:11:00;;;;;;;22.33;13.98;;;;;;;12.48;73.02;101257.13;5043470;28;20029;-56
2022/05/31 07:13:26;;;;;;;16.15;12.52;;;;;;;12.56;72.39;101253.59;5047253;28;20017;-53
2022/05/31 07:15:52;;;;;;;14.38;11.50;;;;;;;12.61;71.50;101251.22;5043662;28;20408;-57
2022/05/31 07:18:19;;;;;;;19.15;12.70;;;;;;;12.71;71.42;101246.50;5051016;28;20029;-55
2022/05/31 07:20:44;;;;;;;15.95;11.85;;;;;;;12.78;70.61;101242.16;5048048;28;20063;-57
2022/05/31 07:23:10;;;;;;;17.88;12.05;;;;;;;12.89;70.15;101247.09;5048680;28;20052;-56
2022/05/31 07:25:35;;;;;;;16.77;11.75;;;;;;;12.97;69.67;101251.53;5051105;28;20083;-57
2022/05/31 07:28:00;;;;;;;14.00;11.98;;;;;;;13.09;69.71;101241.31;5048734;28;20559;-56
2022/05/31 07:30:25;;;;;;;14.07;11.18;;;;;;;13.17;70.06;101251.91;5050580;28;20036;-56
2022/05/31 07:32:51;;;;;;;17.10;10.90;;;;;;;13.25;69.40;101249.22;5059397;28;20113;-56
2022/05/31 07:35:16;;;;;;;17.88;11.32;;;;;;;13.29;68.91;101250.50;5053241;28;20025;-55
2022/05/31 07:37:41;;;;;;;17.95;10.95;;;;;;;13.34;68.60;101245.50;5048666;28;20104;-56
2022/05/31 07:40:07;;;;;;;17.83;10.27;;;;;;;13.37;67.89;101249.63;5050730;28;20397;-55
2022/05/31 07:42:33;;;;;;;15.38;10.40;;;;;;;13.47;67.85;101243.03;5047121;28;20051;-57
2022/05/31 07:44:58;;;;;;;11.48;9.02;;;;;;;13.54;67.46;101248.47;5052023;28;20029;-56
2022/05/31 07:47:24;;;;;;;13.48;8.85;;;;;;;13.53;66.86;101238.81;5052320;28;20096;-56
2022/05/31 07:49:50;;;;;;;13.80;8.90;;;;;;;13.61;66.96;101241.44;5049905;28;20063;-56
2022/05/31 07:52:15;;;;;;;10.77;8.38;;;;;;;13.59;66.29;101238.94;5050269;28;20028;-56
2022/05/31 07:54:41;;;;;;;13.82;8.02;;;;;;;13.62;65.65;101240.44;5050189;28;20070;-55
2022/05/31 07:57:07;;;;;;;13.05;8.70;;;;;;;13.64;65.32;101233.91;5049979;28;20477;-55
2022/05/31 07:59:34;;;;;;;13.82;8.50;;;;;;;13.70;65.43;101242.19;5050166;28;20128;-56
2022/05/31 08:02:00;;;;;;;15.63;8.95;;;;;;;13.80;65.77;101242.75;5049704;28;20481;-57
2022/05/31 08:04:26;;;;;;;9.35;7.78;;;;;;;13.85;65.42;101235.84;5049729;28;20021;-56
2022/05/31 08:06:51;;;;;;;11.45;8.00;;;;;;;13.97;65.53;101232.75;5047942;28;20028;-55
2022/05/31 08:09:17;;;;;;;12.43;7.95;;;;;;;14.06;64.94;101234.31;5060250;28;20032;-55
2022/05/31 08:11:43;;;;;;;11.57;7.13;;;;;;;14.16;64.70;101232.19;5052523;28;20029;-55
2022/05/31 08:14:08;;;;;;;11.77;7.10;;;;;;;14.30;64.97;101227.84;5049987;28;20090;-55
2022/05/31 08:16:34;;;;;;;13.25;6.95;;;;;;;14.41;64.08;101228.19;5049070;28;20053;-57
2022/05/31 08:19:00;;;;;;;10.95;6.82;;;;;;;14.51;63.56;101227.97;5045956;28;20369;-56
2022/05/31 08:24:47;;;;;;;9.95;6.63;;;;;;;14.50;62.72;101221.78;5044988;28;20094;-55
2022/05/31 08:27:13;;;;;;;10.20;7.13;;;;;;;14.46;62.50;101219.69;5048443;28;20036;-56
2022/05/31 08:29:39;;;;;;;11.68;7.20;;;;;;;14.51;62.01;101217.28;5056273;28;20055;-57
2022/05/31 08:32:06;;;;;;;13.68;6.60;;;;;;;14.52;61.50;101221.59;5048525;28;20490;-55
2022/05/31 08:34:32;;;;;;;10.63;6.63;;;;;;;14.60;61.34;101218.81;5048856;28;20495;-56
2022/05/31 08:36:57;;;;;;;11.15;7.03;;;;;;;14.66;61.10;101214.56;5052186;28;20097;-56
2022/05/31 08:39:23;;;;;;;12.82;6.82;;;;;;;14.78;60.87;101218.41;5050200;28;20455;-57
2022/05/31 08:41:52;;;;;;;10.93;7.18;;;;;;;14.83;61.08;101214.16;5049423;28;20127;-57
2022/05/31 08:44:42;;;;;;;12.35;6.38;;;;;;;14.93;59.97;101211.16;5049039;28;20029;-57
2022/05/31 08:47:20;;;;;;;11.73;7.00;;;;;;;15.14;60.34;101211.19;5048560;28;20033;-57
2022/05/31 08:53:24;;;;;;;9.15;5.63;;;;;;;15.40;60.23;101209.75;5051700;28;20110;-56
2022/05/31 08:59:09;;;;;;;9.32;4.78;;;;;;;15.26;58.76;101224.84;5009008;28;20063;-57
2022/05/31 09:01:47;;;;;;;7.82;5.13;;;;;;;15.26;58.84;101224.03;5053792;28;20369;-57
2022/05/31 09:04:22;;;;;;;9.07;5.10;;;;;;;15.46;58.97;101223.19;5049088;28;20110;-56
2022/05/31 09:06:58;;;;;;;7.82;4.70;;;;;;;15.61;58.42;101217.81;5045719;28;20025;-57
2022/05/31 09:09:27;;;;;;;8.73;5.03;;;;;;;15.82;58.53;101208.88;5049076;28;20025;-58
2022/05/31 09:12:04;;;;;;;;;;;;;;;15.91;57.99;101210.38;5046896;28;20144;-55
2022/05/31 09:14:51;;;;;;;7.38;4.57;;;;;;;15.96;57.82;101217.84;5048660;28;19909;-56
2022/05/31 09:17:26;;;;;;;8.23;4.55;;;;;;;15.95;56.94;101208.97;5042983;28;20082;-56
2022/05/31 09:20:01;;;;;;;6.45;4.35;;;;;;;16.15;56.67;101216.28;5048152;28;20023;-56
2022/05/31 09:22:27;;;;;;;7.82;4.40;;;;;;;16.34;56.68;101208.34;5050523;28;20020;-57
2022/05/31 09:24:52;;;;;;;7.68;4.10;;;;;;;16.41;55.35;101208.38;5043500;28;20036;-57
2022/05/31 09:27:32;;;;;;;7.57;3.78;;;;;;;16.46;54.60;101205.91;5046158;28;20024;-56
2022/05/31 09:30:29;;;;;;;7.00;4.05;;;;;;;16.57;54.49;101217.94;5042187;28;20025;-56
2022/05/31 09:33:17;;;;;;;7.75;4.70;;;;;;;16.55;54.09;101220.00;5044042;28;20028;-56
2022/05/31 09:35:57;;;;;;;7.35;5.45;;;;;;;16.67;54.05;101210.34;5043780;28;20500;-55
2022/05/31 09:38:44;;;;;;;6.28;4.45;;;;;;;16.73;53.26;101214.91;5045463;28;20481;-57
2022/05/31 09:41:22;;;;;;;5.70;4.30;;;;;;;16.82;52.92;101211.03;5046651;28;20036;-57
2022/05/31 09:43:57;;;;;;;6.50;4.53;;;;;;;16.82;52.62;101211.03;5043698;28;20037;-56
2022/05/31 09:46:34;;;;;;;7.53;4.45;;;;;;;16.98;52.31;101209.81;5057289;28;20508;-56
2022/05/31 09:49:08;;;;;;;7.45;5.00;;;;;;;17.01;52.19;101210.22;5047163;28;20024;-57
2022/05/31 09:51:38;;;;;;;7.35;5.07;;;;;;;17.02;51.39;101203.84;5048871;28;20040;-56
2022/05/31 09:57:06;;;;;;;8.30;5.38;;;;;;;17.22;52.21;101206.56;5042194;28;20043;-57
2022/05/31 09:59:35;;;;;;;9.85;5.97;;;;;;;17.37;51.97;101206.38;5037444;28;20036;-56
2022/05/31 10:02:17;;;;;;;9.48;5.60;;;;;;;17.68;52.23;101204.94;5046235;28;20036;-57
2022/05/31 10:04:43;;;;;;;8.52;5.60;;;;;;;17.82;52.28;101201.19;5044213;28;20381;-57
2022/05/31 10:07:08;;;;;;;6.72;5.45;;;;;;;17.98;51.66;101192.69;5042505;28;20036;-57
2022/05/31 10:09:43;;;;;;;9.45;5.82;;;;;;;18.14;51.11;101200.28;5055318;28;20544;-57
2022/05/31 10:12:31;;;;;;;9.15;5.68;;;;;;;18.38;51.38;101201.44;5043484;28;20043;-56
2022/05/31 10:14:57;;;;;;;7.95;5.75;;;;;;;18.44;50.76;101200.59;5044582;28;20024;-56
2022/05/31 10:17:35;;;;;;;12.50;5.93;;;;;;;18.49;49.78;101195.38;5047083;28;20090;-56
2022/05/31 10:20:19;;;;;;;7.07;5.35;;;;;;;18.63;49.94;101195.38;5046852;28;20204;-56
2022/05/31 10:22:56;;;;;;;10.68;5.72;;;;;;;18.54;49.31;101192.91;5042547;28;20029;-56
2022/05/31 10:25:23;;;;;;;8.20;5.03;;;;;;;18.35;48.91;101195.69;5047687;28;20029;-56
2022/05/31 10:28:09;;;;;;;10.52;6.47;;;;;;;18.18;48.84;101198.81;5050819;28;20035;-56
2022/05/31 10:30:36;;;;;;;7.60;5.20;;;;;;;17.97;49.20;101196.41;5043894;28;20029;-54
2022/05/31 10:33:25;;;;;;;8.27;5.63;;;;;;;18.07;50.03;101194.13;5043550;28;20033;-56
2022/05/31 10:36:06;;;;;;;8.95;6.10;;;;;;;18.25;50.50;101199.66;5044695;28;20040;-56
2022/05/31 10:38:32;;;;;;;9.07;6.32;;;;;;;18.08;49.97;101200.31;5042844;28;20040;-56
2022/05/31 10:41:04;;;;;;;9.73;6.10;;;;;;;18.05;49.70;101198.06;5043997;28;20033;-57
2022/05/31 10:43:42;;;;;;;7.40;6.07;;;;;;;18.25;50.28;101199.66;5047264;28;20025;-56
2022/05/31 10:46:23;;;;;;;8.30;5.95;;;;;;;18.20;49.61;101203.97;5041203;28;20110;-57
2022/05/31 10:48:52;;;;;;;9.32;5.82;;;;;;;18.05;48.96;101190.81;5045456;28;20033;-56
2022/05/31 10:51:41;;;;;;;9.65;5.90;;;;;;;18.06;49.25;101191.63;5045979;28;20028;-57
2022/05/31 10:54:33;;;;;;;8.20;5.40;;;;;;;17.99;48.87;101185.47;5042903;28;20031;-56
2022/05/31 10:57:12;;;;;;;9.07;5.72;;;;;;;17.91;50.02;101181.94;5044453;28;20882;-57
2022/05/31 10:59:46;;;;;;;6.95;5.78;;;;;;;17.88;49.85;101177.00;5049246;28;20056;-56
2022/05/31 11:02:20;;;;;;;9.32;5.72;;;;;;;17.91;49.90;101173.06;5055239;28;20033;-55
2022/05/31 11:04:57;;;;;;;9.02;4.88;;;;;;;18.05;49.85;101163.94;5048243;28;20025;-57
2022/05/31 11:07:38;;;;;;;6.75;4.97;;;;;;;18.24;49.39;101171.13;5049179;28;20024;-56
2022/05/31 11:13:38;;;;;;;6.05;4.60;;;;;;;18.52;48.39;101169.97;5048495;28;20507;-56
2022/05/31 11:16:16;;;;;;;9.05;5.72;;;;;;;18.49;48.07;101179.25;5051147;28;20032;-56
2022/05/31 11:19:04;;;;;;;7.70;6.00;;;;;;;18.41;48.32;101179.50;5049672;28;20413;-56
2022/05/31 11:21:32;;;;;;;7.80;5.80;;;;;;;18.22;48.37;101186.63;5045682;28;20028;-57
2022/05/31 11:24:31;;;;;;;10.45;6.93;;;;;;;18.06;48.23;101186.25;5048346;28;20040;-56
2022/05/31 11:27:22;;;;;;;8.93;6.90;;;;;;;17.98;48.74;101187.31;5047597;28;20454;-56
2022/05/31 11:30:00;;;;;;;10.05;6.55;;;;;;;17.77;48.95;101193.75;5040520;28;20119;-58
2022/05/31 11:32:44;;;;;;;12.93;6.90;;;;;;;17.71;49.31;101189.22;5047682;28;20462;-56
2022/05/31 11:35:34;;;;;;;9.23;6.97;;;;;;;17.51;49.06;101183.84;5024690;28;20020;-56
2022/05/31 11:38:08;;;;;;;9.90;6.53;;;;;;;17.52;49.24;101187.34;5048322;28;20028;-56
2022/05/31 11:40:45;;;;;;;14.23;7.68;;;;;;;17.50;49.73;101186.72;5048189;28;20025;-57
2022/05/31 11:43:32;;;;;;;11.35;7.20;;;;;;;17.56;49.75;101186.72;5047610;28;20036;-56
2022/05/31 11:46:14;;;;;;;10.90;7.55;;;;;;;17.60;49.81;101187.13;5049152;28;20120;-57
2022/05/31 11:49:00;;;;;;;9.68;7.10;;;;;;;17.64;49.70;101183.03;5044163;28;20032;-57
2022/05/31 11:51:50;;;;;;;9.30;6.60;;;;;;;17.77;50.09;101198.31;5043971;28;20032;-56
2022/05/31 11:54:34;;;;;;;9.23;6.60;;;;;;;17.78;49.48;101189.22;5052889;28;20025;-57
2022/05/31 11:57:23;;;;;;;11.80;6.25;;;;;;;17.83;49.40;101194.78;5051921;28;20139;-56
2022/05/31 12:00:08;;;;;;;10.23;6.82;;;;;;;17.86;48.50;101181.75;5053867;28;20024;-57
2022/05/31 12:02:54;;;;;;;10.45;6.85;;;;;;;17.84;49.09;101183.00;5047731;28;20137;-57